createdAt,value
2017-12-05T00:00:08.814Z,2.27
2017-12-05T00:02:37.108Z,1.67
2017-12-05T00:05:05.390Z,2.30
2017-12-05T00:07:33.685Z,2.30
2017-12-05T00:10:01.997Z,1.50
2017-12-05T00:12:30.288Z,1.97
2017-12-05T00:14:58.564Z,3.70
2017-12-05T00:17:28.352Z,2.33
2017-12-05T00:19:56.628Z,2.70
2017-12-05T00:22:24.946Z,2.10
2017-12-05T00:24:53.222Z,2.00
2017-12-05T00:27:21.511Z,2.40
2017-12-05T00:29:49.803Z,2.33
2017-12-05T00:32:18.085Z,2.92
2017-12-05T00:34:46.360Z,2.27
2017-12-05T00:37:14.643Z,1.87
2017-12-05T00:39:42.916Z,2.73
2017-12-05T00:42:11.220Z,2.20
2017-12-05T00:44:39.500Z,1.80
2017-12-05T00:47:07.780Z,3.83
2017-12-05T00:49:36.059Z,4.33
2017-12-05T00:52:04.775Z,5.10
2017-12-05T00:54:33.063Z,5.20
2017-12-05T00:57:01.345Z,4.30
2017-12-05T00:59:29.632Z,5.12
2017-12-05T01:01:58.890Z,5.17
2017-12-05T01:04:27.168Z,4.90
2017-12-05T01:06:55.457Z,5.10
2017-12-05T01:09:24.088Z,5.00
2017-12-05T01:11:52.389Z,4.67
2017-12-05T01:14:20.673Z,4.80
2017-12-05T01:16:49.717Z,5.10
2017-12-05T01:19:18.010Z,4.90
2017-12-05T01:21:46.297Z,4.60
2017-12-05T01:24:15.258Z,5.00
2017-12-05T01:26:43.539Z,5.43
2017-12-05T01:29:11.820Z,4.90
2017-12-05T01:31:40.556Z,5.45
2017-12-05T01:34:08.885Z,4.47
2017-12-05T01:36:37.161Z,5.27
2017-12-05T01:39:05.448Z,5.03
2017-12-05T01:41:33.784Z,4.00
2017-12-05T01:44:02.081Z,5.30
2017-12-05T01:46:30.370Z,5.00
2017-12-05T01:48:58.653Z,4.93
2017-12-05T01:51:27.850Z,4.32
2017-12-05T01:53:56.137Z,5.40
2017-12-05T01:56:24.428Z,4.53
2017-12-05T01:58:52.720Z,5.00
2017-12-05T02:01:21.019Z,3.80
2017-12-05T02:03:49.322Z,5.10
2017-12-05T02:06:17.608Z,5.33
2017-12-05T02:08:45.880Z,4.60
2017-12-05T02:11:14.172Z,4.80
2017-12-05T02:13:42.465Z,4.10
2017-12-05T02:16:10.764Z,4.07
2017-12-05T02:18:39.080Z,4.97
2017-12-05T02:21:07.357Z,4.60
2017-12-05T02:23:35.632Z,4.43
2017-12-05T02:26:03.917Z,4.10
2017-12-05T02:28:32.205Z,6.00
2017-12-05T02:31:00.501Z,4.33
2017-12-05T02:33:29.548Z,5.20
2017-12-05T02:35:57.836Z,5.10
2017-12-05T02:38:26.121Z,4.50
2017-12-05T02:41:09.991Z,4.80
2017-12-05T02:43:38.282Z,4.87
2017-12-05T02:46:06.574Z,3.50
2017-12-05T02:48:34.844Z,3.83
2017-12-05T02:51:03.161Z,4.60
2017-12-05T02:53:32.119Z,4.43
2017-12-05T02:56:00.396Z,4.50
2017-12-05T02:58:28.681Z,3.40
2017-12-05T03:00:56.963Z,3.73
2017-12-05T03:03:25.257Z,4.60
2017-12-05T03:05:54.458Z,3.90
2017-12-05T03:08:23.011Z,4.37
2017-12-05T03:10:51.303Z,4.40
2017-12-05T03:13:19.597Z,4.33
2017-12-05T03:15:47.877Z,3.50
2017-12-05T03:18:16.156Z,3.73
2017-12-05T03:20:44.448Z,4.53
2017-12-05T03:23:12.744Z,4.25
2017-12-05T03:25:41.051Z,4.20
2017-12-05T03:28:09.327Z,3.50
2017-12-05T03:30:37.616Z,3.83
2017-12-05T03:33:05.892Z,4.17
2017-12-05T03:35:34.172Z,3.87
2017-12-05T03:38:02.453Z,3.80
2017-12-05T03:40:30.741Z,4.03
2017-12-05T03:42:59.016Z,4.10
2017-12-05T03:45:27.300Z,4.13
2017-12-05T03:47:55.592Z,4.47
2017-12-05T03:50:23.872Z,3.37
2017-12-05T03:52:52.353Z,3.93
2017-12-05T03:55:20.621Z,4.43
2017-12-05T03:57:48.898Z,4.37
2017-12-05T04:00:17.166Z,4.93
2017-12-05T04:02:45.457Z,4.20
2017-12-05T04:05:13.740Z,4.60
2017-12-05T04:07:42.784Z,4.70
2017-12-05T04:10:11.076Z,4.00
2017-12-05T04:12:39.384Z,5.27
2017-12-05T04:15:07.661Z,4.70
2017-12-05T04:17:36.709Z,4.93
2017-12-05T04:20:05.784Z,5.37
2017-12-05T04:22:34.065Z,5.30
2017-12-05T04:25:02.349Z,5.68
2017-12-05T04:27:30.729Z,6.30
2017-12-05T04:29:59.265Z,7.25
2017-12-05T04:32:27.557Z,5.50
2017-12-05T04:34:55.842Z,5.50
2017-12-05T04:37:24.137Z,6.20
2017-12-05T04:39:52.421Z,6.80
2017-12-05T04:42:20.716Z,5.53
2017-12-05T04:44:50.192Z,6.30
2017-12-05T04:47:18.469Z,5.77
2017-12-05T04:49:46.774Z,6.70
2017-12-05T04:52:15.055Z,5.60
2017-12-05T04:54:43.350Z,6.80
2017-12-05T04:57:12.396Z,5.77
2017-12-05T04:59:40.693Z,6.27
2017-12-05T05:02:08.977Z,5.00
2017-12-05T05:04:37.272Z,5.60
2017-12-05T05:07:06.332Z,5.13
2017-12-05T05:09:35.460Z,5.00
2017-12-05T05:12:03.778Z,5.03
2017-12-05T05:14:32.053Z,7.18
2017-12-05T05:17:00.340Z,6.07
2017-12-05T05:19:28.620Z,6.90
2017-12-05T05:21:57.610Z,4.82
2017-12-05T05:24:25.933Z,5.70
2017-12-05T05:26:54.216Z,6.17
2017-12-05T05:29:23.260Z,5.93
2017-12-05T05:31:51.595Z,6.00
2017-12-05T05:34:19.888Z,7.30
2017-12-05T05:36:48.182Z,5.45
2017-12-05T05:39:16.455Z,5.47
2017-12-05T05:41:45.123Z,4.70
2017-12-05T05:44:13.407Z,6.97
2017-12-05T05:46:41.701Z,6.73
2017-12-05T05:49:09.980Z,6.53
2017-12-05T05:51:38.272Z,7.40
2017-12-05T05:54:06.572Z,6.67
2017-12-05T05:56:34.865Z,6.83
2017-12-05T05:59:03.162Z,5.73
2017-12-05T06:01:31.468Z,6.20
2017-12-05T06:03:59.757Z,6.90
2017-12-05T06:06:28.040Z,6.90
2017-12-05T06:08:56.629Z,7.00
2017-12-05T06:11:24.994Z,5.47
2017-12-05T06:13:53.276Z,6.35
2017-12-05T06:16:21.577Z,7.40
2017-12-05T06:18:49.860Z,6.13
2017-12-05T06:21:18.912Z,6.67
2017-12-05T06:23:47.206Z,6.40
2017-12-05T06:26:15.497Z,5.33
2017-12-05T06:28:43.783Z,6.30
2017-12-05T06:31:12.076Z,6.15
2017-12-05T06:33:41.117Z,6.87
2017-12-05T06:36:09.396Z,8.00
2017-12-05T06:38:37.662Z,6.80
2017-12-05T06:41:05.953Z,7.77
2017-12-05T06:43:34.273Z,7.60
2017-12-05T06:46:02.562Z,7.95
2017-12-05T06:48:30.848Z,7.97
2017-12-05T06:50:59.141Z,8.05
2017-12-05T06:53:27.419Z,7.03
2017-12-05T06:55:55.722Z,8.07
2017-12-05T06:58:23.997Z,7.78
2017-12-05T07:00:52.272Z,7.20
2017-12-05T07:03:20.562Z,7.70
2017-12-05T07:05:48.842Z,7.77
2017-12-05T07:08:17.120Z,6.68
2017-12-05T07:10:46.184Z,7.47
2017-12-05T07:13:14.476Z,8.37
2017-12-05T07:15:42.760Z,8.43
2017-12-05T07:18:11.040Z,6.70
2017-12-05T07:20:39.337Z,7.97
2017-12-05T07:23:07.641Z,8.20
2017-12-05T07:25:35.929Z,7.57
2017-12-05T07:28:04.213Z,6.62
2017-12-05T07:30:32.514Z,6.90
2017-12-05T07:33:00.801Z,7.37
2017-12-05T07:35:29.076Z,6.87
2017-12-05T07:37:57.363Z,6.70
2017-12-05T07:40:26.416Z,6.97
2017-12-05T07:42:54.692Z,7.10
2017-12-05T07:45:22.981Z,7.57
2017-12-05T07:47:51.276Z,9.10
2017-12-05T07:50:19.573Z,7.10
2017-12-05T07:52:48.621Z,7.60
2017-12-05T07:55:16.917Z,7.20
2017-12-05T07:57:45.966Z,7.60
2017-12-05T08:00:14.264Z,8.80
2017-12-05T08:02:42.582Z,7.20
2017-12-05T08:05:10.877Z,8.87
2017-12-05T08:07:39.366Z,8.47
2017-12-05T08:10:07.655Z,8.83
2017-12-05T08:12:35.943Z,8.27
2017-12-05T08:15:04.223Z,8.43
2017-12-05T08:17:32.520Z,7.87
2017-12-05T08:20:00.817Z,8.50
2017-12-05T08:22:29.110Z,8.20
2017-12-05T08:24:57.399Z,7.00
2017-12-05T08:27:25.686Z,7.63
2017-12-05T08:29:54.280Z,7.40
2017-12-05T08:32:23.469Z,8.37
2017-12-05T08:34:51.761Z,7.50
2017-12-05T08:37:20.063Z,6.77
2017-12-05T08:39:48.373Z,7.60
2017-12-05T08:42:16.677Z,6.23
2017-12-05T08:44:44.968Z,7.23
2017-12-05T08:47:13.734Z,6.67
2017-12-05T08:49:42.026Z,7.10
2017-12-05T08:52:10.349Z,7.33
2017-12-05T08:54:38.652Z,6.67
2017-12-05T08:57:12.676Z,5.90
2017-12-05T08:59:40.953Z,5.93
2017-12-05T09:02:09.244Z,5.78
2017-12-05T09:04:37.548Z,5.07
2017-12-05T09:07:05.851Z,5.07
2017-12-05T09:09:34.123Z,5.50
2017-12-05T09:12:03.174Z,5.53
2017-12-05T09:14:31.460Z,6.27
2017-12-05T09:16:59.741Z,5.47
2017-12-05T09:19:28.033Z,5.70
2017-12-05T09:21:57.393Z,5.18
2017-12-05T09:24:25.675Z,4.80
2017-12-05T09:26:53.990Z,5.00
2017-12-05T09:29:23.044Z,5.00
2017-12-05T09:31:51.328Z,5.10
2017-12-05T09:34:19.613Z,5.10
2017-12-05T09:36:48.841Z,4.60
2017-12-05T09:39:17.133Z,4.63
2017-12-05T09:41:45.423Z,3.80
2017-12-05T09:44:13.709Z,4.05
2017-12-05T09:46:42.663Z,4.00
2017-12-05T09:49:10.976Z,3.80
2017-12-05T09:51:39.266Z,3.87
2017-12-05T09:54:07.553Z,4.47
2017-12-05T09:56:35.836Z,3.80
2017-12-05T09:59:04.117Z,3.50
2017-12-05T10:01:32.413Z,3.50
2017-12-05T10:04:01.113Z,3.42
2017-12-05T10:06:29.392Z,3.57
2017-12-05T10:08:57.700Z,3.60
2017-12-05T10:11:25.972Z,4.07
2017-12-05T10:13:54.253Z,3.30
2017-12-05T10:16:22.532Z,3.47
2017-12-05T10:18:50.812Z,3.10
2017-12-05T10:21:19.089Z,3.70
2017-12-05T10:23:47.370Z,3.47
2017-12-05T10:26:15.644Z,2.90
2017-12-05T10:28:43.934Z,3.40
2017-12-05T10:31:12.220Z,3.45
2017-12-05T10:33:40.532Z,3.37
2017-12-05T10:36:09.580Z,3.40
2017-12-05T10:38:37.856Z,3.90
2017-12-05T10:41:06.140Z,3.33
2017-12-05T10:43:34.412Z,4.30
2017-12-05T10:46:02.712Z,3.40
2017-12-05T10:48:31.757Z,3.45
2017-12-05T10:51:00.037Z,3.40
2017-12-05T10:53:28.313Z,3.77
2017-12-05T10:55:56.597Z,3.20
2017-12-05T10:58:25.356Z,3.87
2017-12-05T11:00:53.640Z,4.90
2017-12-05T11:03:21.929Z,3.97
2017-12-05T11:05:50.229Z,5.17
2017-12-05T11:08:18.521Z,4.60
2017-12-05T11:10:46.820Z,4.60
2017-12-05T11:13:15.873Z,4.75
2017-12-05T11:15:44.174Z,4.70
2017-12-05T11:18:12.444Z,4.03
2017-12-05T11:20:40.724Z,3.70
2017-12-05T11:23:09.029Z,4.40
2017-12-05T11:25:38.109Z,4.90
2017-12-05T11:28:06.420Z,3.80
2017-12-05T11:30:34.713Z,4.60
2017-12-05T11:33:02.992Z,3.90
2017-12-05T11:35:31.277Z,4.23
2017-12-05T11:37:59.576Z,4.90
2017-12-05T11:40:27.876Z,5.03
2017-12-05T11:42:56.152Z,4.03
2017-12-05T11:45:24.460Z,5.20
2017-12-05T11:47:52.740Z,4.30
2017-12-05T11:50:21.013Z,5.68
2017-12-05T11:52:49.298Z,4.43
2017-12-05T11:55:17.596Z,4.43
2017-12-05T11:57:45.885Z,5.30
2017-12-05T12:00:14.173Z,4.37
2017-12-05T12:02:42.435Z,4.60
2017-12-05T12:05:10.712Z,4.57
2017-12-05T12:07:38.995Z,4.40
2017-12-05T12:10:07.280Z,4.10
2017-12-05T12:12:36.324Z,4.90
2017-12-05T12:15:04.608Z,4.30
2017-12-05T12:17:32.880Z,4.53
2017-12-05T12:20:01.169Z,4.50
2017-12-05T12:22:29.456Z,4.93
2017-12-05T12:24:57.737Z,5.23
2017-12-05T12:27:26.024Z,5.10
2017-12-05T12:29:54.307Z,5.20
2017-12-05T12:32:23.360Z,5.85
2017-12-05T12:34:51.641Z,5.00
2017-12-05T12:37:19.929Z,5.87
2017-12-05T12:39:48.208Z,5.68
2017-12-05T12:42:16.494Z,5.50
2017-12-05T12:44:44.793Z,6.10
2017-12-05T12:47:13.089Z,5.30
2017-12-05T12:49:41.390Z,5.80
2017-12-05T12:52:09.673Z,5.73
2017-12-05T12:54:37.964Z,5.43
2017-12-05T12:57:06.253Z,6.77
2017-12-05T12:59:34.548Z,7.50
2017-12-05T13:02:03.600Z,6.97
2017-12-05T13:04:31.885Z,6.83
2017-12-05T13:07:00.193Z,7.07
2017-12-05T13:09:28.474Z,7.70
2017-12-05T13:11:56.765Z,7.50
2017-12-05T13:14:25.061Z,6.53
2017-12-05T13:16:53.364Z,5.43
2017-12-05T13:19:21.660Z,6.47
2017-12-05T13:21:49.949Z,6.80
2017-12-05T13:24:19.023Z,7.83
2017-12-05T13:26:48.167Z,9.23
2017-12-05T13:29:16.456Z,8.20
2017-12-05T13:31:44.737Z,8.40
2017-12-05T13:34:13.028Z,5.17
2017-12-05T13:36:41.872Z,5.73
2017-12-05T13:39:10.172Z,6.60
2017-12-05T13:41:38.485Z,5.50
2017-12-05T13:44:06.764Z,6.87
2017-12-05T13:46:35.053Z,6.28
2017-12-05T13:49:03.336Z,4.80
2017-12-05T13:51:32.387Z,6.13
2017-12-05T13:54:00.661Z,5.80
2017-12-05T13:56:28.978Z,5.33
2017-12-05T13:58:57.265Z,5.60
2017-12-05T14:01:25.558Z,5.90
2017-12-05T14:03:53.838Z,4.13
2017-12-05T14:06:22.131Z,5.75
2017-12-05T14:08:50.441Z,5.50
2017-12-05T14:11:18.793Z,5.00
2017-12-05T14:13:47.861Z,4.22
2017-12-05T14:16:16.159Z,4.70
2017-12-05T14:18:44.433Z,4.67
2017-12-05T14:21:12.750Z,4.60
2017-12-05T14:23:41.217Z,4.90
2017-12-05T14:26:09.488Z,4.77
2017-12-05T14:28:37.770Z,4.50
2017-12-05T14:31:06.083Z,5.50
2017-12-05T14:33:35.160Z,4.17
2017-12-05T14:36:03.435Z,4.77
2017-12-05T14:38:31.710Z,4.93
2017-12-05T14:40:59.987Z,5.03
2017-12-05T14:43:28.291Z,6.30
2017-12-05T14:45:57.379Z,6.43
2017-12-05T14:48:26.428Z,5.50
2017-12-05T14:50:54.741Z,5.50
2017-12-05T14:53:23.108Z,4.87
2017-12-05T14:55:51.423Z,4.00
2017-12-05T14:58:19.701Z,3.97
2017-12-05T15:00:48.013Z,4.17
2017-12-05T15:03:16.294Z,4.03
2017-12-05T15:05:44.655Z,3.83
2017-12-05T15:08:12.932Z,3.73
2017-12-05T15:10:41.217Z,3.17
2017-12-05T15:13:09.508Z,4.00
2017-12-05T15:15:38.776Z,3.63
2017-12-05T15:18:07.116Z,3.33
2017-12-05T15:20:36.173Z,3.70
2017-12-05T15:23:04.456Z,3.60
2017-12-05T15:25:32.741Z,3.47
2017-12-05T15:28:01.012Z,3.63
2017-12-05T15:30:29.320Z,19.30
2017-12-05T15:32:58.383Z,4.50
2017-12-05T15:35:26.672Z,4.00
2017-12-05T15:37:54.981Z,4.10
2017-12-05T15:40:23.258Z,4.82
2017-12-05T15:42:51.588Z,3.53
2017-12-05T15:45:19.833Z,4.23
2017-12-05T15:47:48.124Z,3.97
2017-12-05T15:50:16.386Z,3.33
2017-12-05T15:52:44.678Z,3.97
2017-12-05T15:55:12.966Z,3.83
2017-12-05T15:57:42.753Z,3.57
2017-12-05T16:00:11.037Z,4.93
2017-12-05T16:02:39.329Z,4.47
2017-12-05T16:05:07.625Z,4.10
2017-12-05T16:07:35.930Z,3.93
2017-12-05T16:10:04.218Z,4.63
2017-12-05T16:12:32.505Z,4.55
2017-12-05T16:15:00.772Z,4.10
2017-12-05T16:17:29.058Z,4.60
2017-12-05T16:19:57.346Z,4.07
2017-12-05T16:22:26.418Z,5.12
2017-12-05T16:24:54.731Z,4.53
2017-12-05T16:27:23.018Z,4.00
2017-12-05T16:29:51.359Z,4.60
2017-12-05T16:32:21.053Z,5.47
2017-12-05T16:34:49.549Z,4.90
2017-12-05T16:37:17.876Z,5.30
2017-12-05T16:39:46.200Z,3.87
2017-12-05T16:42:14.525Z,4.20
2017-12-05T16:44:42.825Z,4.53
2017-12-05T16:47:11.974Z,4.10
2017-12-05T16:49:40.350Z,5.00
2017-12-05T16:52:08.669Z,5.73
2017-12-05T16:54:36.974Z,4.82
2017-12-05T16:57:05.344Z,11.10
2017-12-05T16:59:33.683Z,7.10
2017-12-05T17:02:01.997Z,5.97
2017-12-05T17:04:30.317Z,6.95
2017-12-05T17:06:58.714Z,4.40
2017-12-05T17:09:27.119Z,4.93
2017-12-05T17:11:55.422Z,5.20
2017-12-05T17:14:23.746Z,3.70
2017-12-05T17:16:52.168Z,4.00
2017-12-05T17:19:20.563Z,4.63
2017-12-05T17:21:48.977Z,4.07
2017-12-05T17:24:17.402Z,5.27
2017-12-05T17:26:46.965Z,5.53
2017-12-05T17:29:15.318Z,4.77
2017-12-05T17:31:43.758Z,5.60
2017-12-05T17:34:12.132Z,5.50
2017-12-05T17:36:41.416Z,6.10
2017-12-05T17:39:09.804Z,6.20
2017-12-05T17:41:38.153Z,4.68
2017-12-05T17:44:06.472Z,4.70
2017-12-05T17:46:34.864Z,4.95
2017-12-05T17:49:04.161Z,5.05
2017-12-05T17:51:32.793Z,5.27
2017-12-05T17:54:01.545Z,4.97
2017-12-05T17:56:30.167Z,4.97
2017-12-05T17:58:58.713Z,5.57
2017-12-05T18:01:27.463Z,6.33
2017-12-05T18:03:56.305Z,5.57
2017-12-05T18:06:26.036Z,5.33
2017-12-05T18:08:55.421Z,5.73
2017-12-05T18:11:24.322Z,6.83
2017-12-05T18:13:52.940Z,4.90
2017-12-05T18:16:21.592Z,5.30
2017-12-05T18:18:50.557Z,5.00
2017-12-05T18:21:19.870Z,5.70
2017-12-05T18:23:49.355Z,4.97
2017-12-05T18:26:18.044Z,5.33
2017-12-05T18:28:47.789Z,5.63
2017-12-05T18:31:17.173Z,4.40
2017-12-05T18:33:47.638Z,5.27
2017-12-05T18:36:17.569Z,5.07
2017-12-05T18:38:47.876Z,4.10
2017-12-05T18:41:17.842Z,5.07
2017-12-05T18:43:48.037Z,5.47
2017-12-05T18:46:17.839Z,5.20
2017-12-05T18:48:47.605Z,4.70
2017-12-05T18:51:17.134Z,5.33
2017-12-05T18:53:46.996Z,5.53
2017-12-05T18:56:18.129Z,6.63
2017-12-05T18:58:48.415Z,5.68
2017-12-05T19:01:18.436Z,6.17
2017-12-05T19:03:48.512Z,10.97
2017-12-05T19:06:19.290Z,7.87
2017-12-05T19:08:49.219Z,4.50
2017-12-05T19:11:19.175Z,5.80
2017-12-05T19:13:49.384Z,4.83
2017-12-05T19:16:20.236Z,5.07
2017-12-05T19:18:51.168Z,6.37
2017-12-05T19:21:21.381Z,5.63
2017-12-05T19:23:51.675Z,5.80
2017-12-05T19:26:21.752Z,5.17
2017-12-05T19:28:51.969Z,5.10
2017-12-05T19:31:22.016Z,5.83
2017-12-05T19:33:52.257Z,5.80
2017-12-05T19:36:22.291Z,5.83
2017-12-05T19:38:53.332Z,5.77
2017-12-05T19:41:23.488Z,6.70
2017-12-05T19:43:54.429Z,5.80
2017-12-05T19:46:24.875Z,7.27
2017-12-05T19:48:54.922Z,6.07
2017-12-05T19:51:24.969Z,5.73
2017-12-05T19:53:55.219Z,6.40
2017-12-05T19:56:26.327Z,6.80
2017-12-05T19:58:57.336Z,6.10
2017-12-05T20:01:27.352Z,7.17
2017-12-05T20:03:57.245Z,8.00
2017-12-05T20:06:27.197Z,7.53
2017-12-05T20:08:57.428Z,6.53
2017-12-05T20:11:27.736Z,6.60
2017-12-05T20:13:57.892Z,7.57
2017-12-05T20:16:28.148Z,7.27
2017-12-05T20:18:58.256Z,6.77
2017-12-05T20:21:28.418Z,7.23
2017-12-05T20:36:53.725Z,7.80
2017-12-05T20:39:24.650Z,7.73
2017-12-05T20:41:54.781Z,6.60
2017-12-05T20:44:25.169Z,8.10
2017-12-05T20:46:55.496Z,9.10
2017-12-05T20:49:26.090Z,8.50
2017-12-05T20:51:56.466Z,7.60
2017-12-05T20:54:26.553Z,7.80
2017-12-05T20:56:56.557Z,6.87
2017-12-05T20:59:26.446Z,6.87
2017-12-05T21:01:56.266Z,6.93
2017-12-05T21:04:26.919Z,6.93
2017-12-05T21:06:56.686Z,7.10
2017-12-05T21:09:27.292Z,6.93
2017-12-05T21:11:57.101Z,6.50
2017-12-05T21:14:26.986Z,7.27
2017-12-05T21:16:56.961Z,6.80
2017-12-05T21:19:27.920Z,6.70
2017-12-05T21:21:57.766Z,7.33
2017-12-05T21:24:27.557Z,6.43
2017-12-05T21:26:57.389Z,6.87
2017-12-05T21:29:28.033Z,6.23
2017-12-05T21:31:57.886Z,6.77
2017-12-05T21:34:27.730Z,5.93
2017-12-05T21:36:58.154Z,6.50
2017-12-05T21:39:28.021Z,6.80
2017-12-05T21:41:57.831Z,6.03
2017-12-05T21:44:27.790Z,4.85
2017-12-05T21:46:57.707Z,4.87
2017-12-05T21:49:27.573Z,4.97
2017-12-05T21:52:02.237Z,5.00
2017-12-05T21:54:32.624Z,4.87
2017-12-05T21:57:02.273Z,7.55
2017-12-05T21:59:32.039Z,4.43
2017-12-05T22:02:01.902Z,4.40
2017-12-05T22:04:32.376Z,5.00
2017-12-05T22:07:01.908Z,4.20
2017-12-05T22:09:31.326Z,4.77
2017-12-05T22:12:01.604Z,3.63
2017-12-05T22:14:31.655Z,3.97
2017-12-05T22:17:00.524Z,3.50
2017-12-05T22:19:29.023Z,3.53
2017-12-05T22:21:57.332Z,3.40
2017-12-05T22:24:25.647Z,3.43
2017-12-05T22:26:53.934Z,2.93
2017-12-05T22:29:22.251Z,2.67
2017-12-05T22:31:50.532Z,3.67
2017-12-05T22:34:18.876Z,3.80
2017-12-05T22:36:47.935Z,2.70
2017-12-05T22:39:16.228Z,2.80
2017-12-05T22:41:44.521Z,2.30
2017-12-05T22:44:12.818Z,2.83
2017-12-05T22:46:41.724Z,2.33
2017-12-05T22:49:10.010Z,2.67
2017-12-05T22:51:38.296Z,2.17
2017-12-05T22:54:06.582Z,2.60
2017-12-05T22:56:34.873Z,2.90
2017-12-05T22:59:03.174Z,2.60
2017-12-05T23:01:31.462Z,2.60
2017-12-05T23:03:59.744Z,4.97
2017-12-05T23:06:28.022Z,2.87
2017-12-05T23:08:56.301Z,2.72
2017-12-05T23:11:24.589Z,2.87
2017-12-05T23:13:52.878Z,2.17
2017-12-05T23:16:21.160Z,2.20
2017-12-05T23:18:49.474Z,2.15
2017-12-05T23:21:18.528Z,2.30
2017-12-05T23:23:46.828Z,1.90
2017-12-05T23:26:15.121Z,1.77
2017-12-05T23:28:44.169Z,1.87
2017-12-05T23:31:12.465Z,1.77
2017-12-05T23:33:40.748Z,1.70
2017-12-05T23:36:09.053Z,1.87
2017-12-05T23:38:37.332Z,1.60
2017-12-05T23:41:06.440Z,1.93
2017-12-05T23:43:34.745Z,1.73
2017-12-05T23:46:03.029Z,2.17
2017-12-05T23:48:31.377Z,1.73
2017-12-05T23:50:59.657Z,2.10
2017-12-05T23:53:27.932Z,1.70
2017-12-05T23:55:56.210Z,2.00
2017-12-05T23:58:24.488Z,1.60
